Time;durP1;ratioP1;P1;durP2;ratioP2;P2;SDS_P1;SDS_P2;PMS_P1;PMS_P2;Temp;Humidity;BMP_temperature;BMP_pressure;BME280_temperature;BME280_humidity;BME280_pressure;Samples;Min_cycle;Max_cycle;Signal;HPM_P1;HPM_P2
2023/10/05 00:02:08;;;;;;;;;;;7.70;99.90;;;7.04;100.00;98577.63;4998307;28;19929;-76
2023/10/05 00:04:41;;;;;;;;;;;7.70;99.90;;;6.98;100.00;98569.09;5000896;28;21626;-76
2023/10/05 00:07:18;;;;;;;;;;;7.70;99.90;;;6.98;100.00;98569.09;5003042;28;20531;-76
2023/10/05 00:09:45;;;;;;;;;;;7.70;99.90;;;7.01;100.00;98569.06;5001368;28;20028;-76
2023/10/05 00:12:19;;;;;;;;;;;7.70;99.90;;;6.95;100.00;98562.25;5000691;28;19932;-76
2023/10/05 00:14:54;;;;;;;;;;;7.70;99.90;;;6.94;100.00;98562.28;5002102;28;19987;-75
2023/10/05 00:17:22;;;;;;;;;;;7.60;99.90;;;6.87;100.00;98564.06;5002550;28;19934;-76
2023/10/05 00:19:50;;;;;;;;;;;7.60;99.90;;;6.95;100.00;98562.25;5005195;28;19933;-75
2023/10/05 00:22:17;;;;;;;;;;;7.60;99.90;;;6.89;100.00;98564.91;5006463;28;19929;-76
2023/10/05 00:24:46;;;;;;;;;;;7.60;99.90;;;6.87;100.00;98561.50;5018561;28;20301;-76
2023/10/05 00:27:15;;;;;;;;;;;7.60;99.90;;;6.84;100.00;98556.34;4991420;28;19930;-76
2023/10/05 00:29:43;;;;;;;;;;;7.60;99.90;;;6.81;100.00;98549.50;5006956;28;19933;-75
2023/10/05 00:32:25;;;;;;;;;;;7.50;99.90;;;6.71;100.00;98550.50;5004086;28;19985;-76
2023/10/05 00:35:14;;;;;;;;;;;7.50;99.90;;;6.69;100.00;98554.81;5003625;28;19934;-76
2023/10/05 00:37:46;;;;;;;;;;;7.50;99.90;;;6.76;100.00;98551.28;5005784;28;19944;-76
2023/10/05 00:43:24;;;;;;;;;;;7.50;99.90;;;6.76;100.00;98548.72;4963570;28;19934;-76
2023/10/05 00:45:54;;;;;;;;;;;7.50;99.90;;;6.75;100.00;98543.56;4982950;28;19929;-76
2023/10/05 00:51:04;;;;;;;;;;;7.50;99.90;;;6.79;100.00;98533.19;4999901;28;20923;-76
2023/10/05 00:53:32;;;;;;;;;;;7.50;99.90;;;6.76;100.00;98533.22;5015933;28;19937;-76
2023/10/05 00:56:11;;;;;;;;;;;7.50;99.90;;;6.61;100.00;98530.81;5015388;28;20001;-76
2023/10/05 00:58:54;;;;;;;;;;;7.50;99.90;;;6.71;100.00;98535.03;5005027;28;19934;-76
2023/10/05 01:01:34;;;;;;;;;;;7.50;99.90;;;6.64;100.00;98531.66;4999297;28;19933;-76
2023/10/05 01:06:41;;;;;;;;;;;7.50;99.90;;;6.79;100.00;98525.44;4999438;28;19965;-76
2023/10/05 01:09:22;;;;;;;;;;;7.50;99.90;;;6.85;100.00;98529.69;5000296;28;19977;-76
2023/10/05 01:11:54;;;;;;;;;;;7.50;99.90;;;6.90;100.00;98530.47;5015338;28;19933;-76
2023/10/05 01:14:27;;;;;;;;;;;7.50;99.90;;;6.91;100.00;98527.00;5000690;28;19976;-76
2023/10/05 01:16:54;;;;;;;;;;;7.60;99.90;;;6.94;100.00;98531.31;5000104;28;20661;-76
2023/10/05 01:19:21;;;;;;;;;;;7.60;99.90;;;6.96;100.00;98530.41;5003444;28;19937;-76
2023/10/05 01:21:51;;;;;;;;;;;7.60;99.90;;;6.96;100.00;98522.66;5001813;28;20394;-76
2023/10/05 01:24:23;;;;;;;;;;;7.70;99.90;;;6.98;100.00;98522.63;5001512;28;21821;-75
2023/10/05 01:26:50;;;;;;;;;;;7.70;99.90;;;6.90;100.00;98522.75;5001103;28;19964;-75
2023/10/05 01:29:17;;;;;;;;;;;7.70;99.90;;;6.93;100.00;98514.94;5000259;28;19995;-75
2023/10/05 01:31:48;;;;;;;;;;;7.80;99.90;;;6.99;100.00;98522.63;5015075;28;20049;-76
2023/10/05 01:34:15;;;;;;;;;;;7.80;99.90;;;6.98;100.00;98510.59;5003070;28;20540;-76
2023/10/05 01:36:46;;;;;;;;;;;7.70;99.90;;;7.00;100.00;98508.84;5004246;28;19930;-76
2023/10/05 01:39:19;;;;;;;;;;;7.80;99.90;;;6.91;100.00;98502.06;5001410;28;19984;-75
2023/10/05 01:41:48;;;;;;;;;;;7.90;99.90;;;6.92;100.00;98495.19;5002666;28;19940;-76
2023/10/05 01:44:14;;;;;;;;;;;7.90;99.90;;;6.97;100.00;98497.69;5001911;28;19996;-75
2023/10/05 01:46:42;;;;;;;;;;;7.80;99.90;;;6.90;100.00;98502.94;5000826;28;19987;-75
2023/10/05 01:49:09;;;;;;;;;;;7.60;99.90;;;6.82;100.00;98507.34;5003629;28;19965;-76
2023/10/05 01:51:39;;;;;;;;;;;7.60;99.90;;;6.77;100.00;98510.84;4985497;28;19926;-75
2023/10/05 01:54:11;;;;;;;;;;;7.50;99.90;;;6.68;100.00;98520.44;5000984;28;19968;-76
2023/10/05 01:56:39;;;;;;;;;;;7.40;99.90;;;6.75;100.00;98503.16;5001659;28;19929;-76
2023/10/05 01:59:07;;;;;;;;;;;7.60;99.90;;;6.79;100.00;98497.06;5014764;28;19932;-76
2023/10/05 02:01:39;;;;;;;;;;;7.60;99.90;;;6.74;100.00;98496.28;5000413;28;19929;-75
2023/10/05 02:04:07;;;;;;;;;;;7.60;99.90;;;6.80;100.00;98491.03;5002309;28;19925;-76
2023/10/05 02:06:45;;;;;;;;;;;7.60;99.90;;;6.78;100.00;98504.84;5000096;28;19952;-76
2023/10/05 02:09:14;;;;;;;;;;;7.60;99.90;;;6.66;100.00;98498.94;5016651;28;20031;-76
2023/10/05 02:11:41;;;;;;;;;;;7.70;99.90;;;6.66;100.00;98506.69;5002326;28;19933;-76
2023/10/05 02:14:12;;;;;;;;;;;7.80;99.90;;;6.77;100.00;98496.22;5017345;28;20398;-75
2023/10/05 02:16:39;;;;;;;;;;;7.70;99.90;;;6.93;100.00;98486.56;5002710;28;19969;-76
2023/10/05 02:19:07;;;;;;;;;;;7.90;99.90;;;6.88;100.00;98483.19;5003032;28;21097;-76
2023/10/05 02:21:38;;;;;;;;;;;7.90;99.90;;;6.99;100.00;98470.16;4999842;28;19925;-75
2023/10/05 02:24:17;;;;;;;;;;;8.00;99.90;;;7.25;100.00;98473.22;5004879;28;19993;-76
2023/10/05 02:29:27;;;;;;;;;;;8.00;99.90;;;6.76;100.00;98460.13;5001838;28;19938;-76
2023/10/05 02:32:05;;;;;;;;;;;7.90;99.90;;;6.79;100.00;98457.50;5017469;28;20024;-75
2023/10/05 02:35:24;;;;;;;;;;;7.90;99.90;;;6.69;100.00;98460.22;5000416;28;19934;-76
2023/10/05 02:37:22;;;;;;;;;;;7.80;99.90;;;6.65;100.00;98457.69;4993782;28;19929;-76
2023/10/05 02:39:49;;;;;;;;;;;7.70;99.90;;;6.69;100.00;98452.47;5000709;28;20442;-76
2023/10/05 02:42:21;;;;;;;;;;;7.60;99.90;;;6.58;100.00;98454.31;5000865;28;19926;-76
2023/10/05 02:44:49;;;;;;;;;;;7.50;99.90;;;6.55;100.00;98467.28;5014619;28;19933;-75
2023/10/05 02:47:22;;;;;;;;;;;7.40;99.90;;;6.47;100.00;98456.19;5002441;28;19969;-75
2023/10/05 02:49:50;;;;;;;;;;;7.40;99.90;;;6.40;100.00;98457.13;5001817;28;20040;-76
2023/10/05 02:52:17;;;;;;;;;;;7.40;99.90;;;6.54;100.00;98454.38;4999145;28;19981;-76
2023/10/05 02:54:45;;;;;;;;;;;7.40;99.90;;;6.54;100.00;98464.69;5000617;28;19934;-76
2023/10/05 02:57:16;;;;;;;;;;;7.30;99.90;;;6.39;100.00;98464.03;4999393;28;19925;-76
2023/10/05 02:59:43;;;;;;;;;;;7.30;99.90;;;6.48;100.00;98468.22;5000019;28;19933;-75
2023/10/05 03:02:16;;;;;;;;;;;7.20;99.90;;;6.44;100.00;98475.13;5000697;28;19925;-76
2023/10/05 03:04:45;;;;;;;;;;;7.20;99.90;;;6.42;100.00;98469.13;5000142;28;19926;-76
2023/10/05 03:07:16;;;;;;;;;;;7.20;99.90;;;6.57;100.00;98474.97;4997988;28;20385;-76
2023/10/05 03:09:46;;;;;;;;;;;7.20;99.90;;;6.54;100.00;98486.19;4999908;28;19925;-76
2023/10/05 03:12:13;;;;;;;;;;;7.30;99.90;;;6.59;100.00;98496.44;5000225;28;19929;-76
2023/10/05 03:14:43;;;;;;;;;;;7.30;99.90;;;6.74;100.00;98505.75;5000232;28;19941;-76
2023/10/05 03:17:18;;;;;;;;;;;7.40;99.90;;;6.93;100.00;98496.03;4999976;28;19940;-76
2023/10/05 03:19:45;;;;;;;;;;;7.50;99.90;;;6.97;100.00;98493.38;5013678;28;20322;-76
2023/10/05 03:22:12;;;;;;;;;;;7.70;99.90;;;7.15;100.00;98494.03;4998660;28;20048;-76
2023/10/05 03:24:44;;;;;;;;;;;7.80;99.90;;;7.15;100.00;98499.19;4999846;28;20294;-76
2023/10/05 03:27:11;;;;;;;;;;;7.90;99.90;;;7.11;100.00;98503.53;5012588;28;20482;-76
2023/10/05 03:29:39;;;;;;;;;;;7.90;99.90;;;7.24;100.00;98517.13;4999840;28;19926;-76
2023/10/05 03:34:39;;;;;;;;;;;8.10;99.90;;;7.15;100.00;98525.84;5000562;28;19937;-76
2023/10/05 03:37:15;;;;;;;;;;;8.10;99.90;;;7.13;100.00;98525.84;5000056;28;19933;-76
2023/10/05 03:39:51;;;;;;;;;;;8.00;99.90;;;7.25;100.00;98530.03;5013053;28;20409;-76
2023/10/05 03:42:22;;;;;;;;;;;8.10;99.90;;;7.32;100.00;98534.22;5004749;28;19961;-76
2023/10/05 03:45:03;;;;;;;;;;;8.10;99.90;;;7.31;100.00;98531.66;4999237;28;19925;-77
2023/10/05 03:47:31;;;;;;;;;;;8.20;99.90;;;7.36;100.00;98529.00;5002327;28;19929;-76
2023/10/05 03:49:58;;;;;;;;;;;8.30;99.90;;;7.27;100.00;98532.56;5003725;28;20295;-76
2023/10/05 03:52:29;;;;;;;;;;;8.30;99.90;;;7.32;100.00;98529.06;5003030;28;19929;-76
2023/10/05 03:55:01;;;;;;;;;;;8.30;99.90;;;7.23;100.00;98526.63;5003529;28;20024;-75
2023/10/05 03:57:35;;;;;;;;;;;8.10;99.90;;;7.15;100.00;98532.75;5000355;28;19933;-76
2023/10/05 04:00:16;;;;;;;;;;;8.00;99.90;;;7.07;100.00;98525.09;5003912;28;20464;-76
2023/10/05 04:02:44;;;;;;;;;;;7.80;99.90;;;6.96;100.00;98533.00;5004669;28;19961;-75
2023/10/05 04:05:11;;;;;;;;;;;7.70;99.90;;;6.76;100.00;98538.38;5004708;28;19933;-76
2023/10/05 04:07:39;;;;;;;;;;;7.70;99.90;;;6.72;100.00;98528.13;5004257;28;19929;-76
2023/10/05 04:10:14;;;;;;;;;;;7.60;99.90;;;6.67;100.00;98533.34;5018357;28;19925;-77
2023/10/05 04:12:42;;;;;;;;;;;7.50;99.90;;;6.59;100.00;98529.97;5004102;28;19940;-76
2023/10/05 04:15:11;;;;;;;;;;;7.30;99.90;;;6.42;100.00;98525.03;5004596;28;19973;-75
2023/10/05 04:17:43;;;;;;;;;;;7.30;99.90;;;6.41;100.00;98534.50;5004010;28;19933;-76
2023/10/05 04:20:17;;;;;;;;;;;7.30;99.90;;;6.38;100.00;98528.50;5001608;28;19926;-76
2023/10/05 04:22:47;;;;;;;;;;;7.20;99.90;;;6.43;100.00;98521.56;5001696;28;20012;-75
2023/10/05 04:25:16;;;;;;;;;;;7.20;99.90;;;6.44;100.00;98526.72;4997398;28;20394;-76
2023/10/05 04:27:47;;;;;;;;;;;7.10;99.90;;;6.43;100.00;98531.88;5003513;28;19930;-76
2023/10/05 04:30:21;;;;;;;;;;;7.20;99.90;;;6.39;100.00;98531.06;5016961;28;19930;-75
2023/10/05 04:32:49;;;;;;;;;;;7.10;99.90;;;6.43;100.00;98516.41;5018037;28;20314;-76
2023/10/05 04:35:24;;;;;;;;;;;7.10;99.90;;;6.49;100.00;98526.66;5003211;28;19930;-77
2023/10/05 04:37:51;;;;;;;;;;;7.10;99.90;;;6.53;100.00;98524.91;5001743;28;20019;-75
2023/10/05 04:40:21;;;;;;;;;;;7.10;99.90;;;6.44;100.00;98521.56;5017960;28;19930;-75
2023/10/05 04:42:50;;;;;;;;;;;7.20;99.90;;;6.33;100.00;98515.66;5001153;28;19933;-75
2023/10/05 04:45:20;;;;;;;;;;;7.20;99.90;;;6.44;100.00;98503.50;5002200;28;20392;-76
2023/10/05 04:47:48;;;;;;;;;;;7.30;99.90;;;6.61;100.00;98502.44;5001586;28;20031;-75
2023/10/05 04:50:17;;;;;;;;;;;7.40;99.90;;;6.61;100.00;98492.97;5002379;28;20385;-76
2023/10/05 04:52:50;;;;;;;;;;;7.50;99.90;;;6.67;100.00;98498.06;4984490;28;19929;-76
2023/10/05 04:55:22;;;;;;;;;;;7.40;99.90;;;6.68;100.00;98510.13;5017823;28;19925;-76
2023/10/05 04:57:50;;;;;;;;;;;7.40;99.90;;;6.58;100.00;98503.34;5002098;28;19980;-76
2023/10/05 05:03:17;;;;;;;;;;;7.50;99.90;;;6.74;100.00;98498.84;5014983;28;20672;-75
2023/10/05 05:05:57;;;;;;;;;;;7.40;99.90;;;6.73;100.00;98492.00;5002244;28;19933;-76
2023/10/05 05:08:24;;;;;;;;;;;7.40;99.90;;;6.78;100.00;98497.94;5003702;28;20362;-75
2023/10/05 05:10:51;;;;;;;;;;;7.40;99.90;;;6.63;100.00;98493.81;5004186;28;20432;-76
2023/10/05 05:13:20;;;;;;;;;;;7.40;99.90;;;6.68;100.00;98488.59;5005045;28;19930;-75
2023/10/05 05:15:47;;;;;;;;;;;7.50;99.90;;;6.81;100.00;98497.91;4991368;28;20394;-76
2023/10/05 05:18:14;;;;;;;;;;;7.50;99.90;;;6.98;100.00;98508.03;5013885;28;20012;-76
2023/10/05 05:20:44;;;;;;;;;;;7.60;99.90;;;7.21;100.00;98509.44;5000690;28;19936;-76
2023/10/05 05:23:13;;;;;;;;;;;7.80;99.90;;;7.35;100.00;98504.91;5002497;28;19980;-76
2023/10/05 05:25:40;;;;;;;;;;;8.00;99.90;;;7.44;100.00;98504.78;5001980;28;20044;-75
2023/10/05 05:28:08;;;;;;;;;;;8.20;99.90;;;7.40;100.00;98503.09;5002451;28;19941;-75
2023/10/05 05:30:40;;;;;;;;;;;8.30;99.90;;;7.38;100.00;98504.00;5002604;28;19934;-76
2023/10/05 05:33:10;;;;;;;;;;;8.40;99.90;;;7.39;100.00;98479.88;4995184;28;19925;-76
2023/10/05 05:35:39;;;;;;;;;;;8.40;99.90;;;7.56;100.00;98490.81;5003040;28;20012;-76
2023/10/05 05:38:09;;;;;;;;;;;8.50;99.90;;;7.53;100.00;98493.47;5002406;28;19929;-76
2023/10/05 05:40:38;;;;;;;;;;;8.50;99.90;;;7.67;100.00;98491.50;5002701;28;19936;-76
2023/10/05 05:43:09;;;;;;;;;;;8.60;99.90;;;7.64;100.00;98494.13;5002357;28;19932;-76
2023/10/05 05:45:39;;;;;;;;;;;8.60;99.90;;;7.68;100.00;98494.91;4999873;28;20337;-75
2023/10/05 05:48:09;;;;;;;;;;;8.60;99.90;;;7.73;100.00;98504.31;5002292;28;19963;-76
2023/10/05 05:50:39;;;;;;;;;;;8.70;99.90;;;7.67;100.00;98508.72;5002231;28;20036;-76
2023/10/05 05:53:11;;;;;;;;;;;8.70;99.90;;;7.67;100.00;98509.59;5000716;28;19937;-76
2023/10/05 05:55:43;;;;;;;;;;;8.70;99.90;;;7.61;100.00;98514.84;5001238;28;19933;-76
2023/10/05 05:58:16;;;;;;;;;;;8.70;99.90;;;7.78;100.00;98509.41;4999891;28;19929;-76
2023/10/05 06:00:46;;;;;;;;;;;8.80;99.90;;;7.79;100.00;98507.69;4996544;28;19929;-76
2023/10/05 06:03:16;;;;;;;;;;;8.80;99.90;;;7.79;100.00;98508.53;5003314;28;20368;-76
2023/10/05 06:05:44;;;;;;;;;;;8.80;99.90;;;7.90;100.00;98503.19;5017482;28;19980;-75
2023/10/05 06:08:11;;;;;;;;;;;8.90;99.90;;;7.87;100.00;98496.34;5002476;28;19929;-75
2023/10/05 06:10:39;;;;;;;;;;;8.90;99.90;;;7.88;100.00;98503.19;5014586;28;20020;-76
2023/10/05 06:13:06;;;;;;;;;;;8.90;99.90;;;7.90;100.00;98500.59;5000163;28;19936;-75
2023/10/05 06:15:34;;;;;;;;;;;8.90;99.90;;;7.94;100.00;98494.50;5013794;28;20020;-75
2023/10/05 06:18:03;;;;;;;;;;;9.00;99.90;;;7.97;100.00;98502.19;5002801;28;19935;-76
2023/10/05 06:20:31;;;;;;;;;;;9.00;99.90;;;8.01;100.00;98505.59;5001381;28;19937;-76
2023/10/05 06:23:00;;;;;;;;;;;8.90;99.90;;;8.10;100.00;98495.94;5000734;28;19929;-76
2023/10/05 06:25:27;;;;;;;;;;;9.00;99.90;;;8.13;100.00;98503.63;5001974;28;20286;-76
2023/10/05 06:27:55;;;;;;;;;;;9.00;99.90;;;8.00;100.00;98509.88;5001839;28;19940;-75
2023/10/05 06:30:22;;;;;;;;;;;8.90;99.90;;;7.96;100.00;98508.25;5000233;28;20019;-76
2023/10/05 06:32:49;;;;;;;;;;;8.90;99.90;;;8.05;100.00;98512.38;5000502;28;19957;-75
2023/10/05 06:35:17;;;;;;;;;;;8.90;99.90;;;8.10;100.00;98510.59;4999075;28;19937;-75
2023/10/05 06:37:45;;;;;;;;;;;8.90;99.90;;;8.09;100.00;98509.72;5000822;28;19930;-76
2023/10/05 06:40:12;;;;;;;;;;;9.00;99.90;;;8.35;100.00;98513.59;4996162;28;19929;-76
2023/10/05 06:42:42;;;;;;;;;;;9.10;99.90;;;8.33;100.00;98517.94;5000484;28;19933;-75
2023/10/05 06:45:23;;;;;;;;;;;9.20;99.90;;;8.50;100.00;98515.06;5013753;28;19926;-75
2023/10/05 06:47:51;;;;;;;;;;;9.30;99.90;;;8.44;100.00;98517.75;4996778;28;21491;-78
2023/10/05 06:50:21;;;;;;;;;;;9.30;99.90;;;8.51;100.00;98527.13;5002111;28;19938;-76
2023/10/05 06:52:48;;;;;;;;;;;9.30;99.90;;;8.53;100.00;98525.34;5000326;28;19933;-76
2023/10/05 06:55:17;;;;;;;;;;;9.40;99.90;;;8.57;100.00;98530.44;5001299;28;19933;-75
2023/10/05 06:57:45;;;;;;;;;;;9.50;99.90;;;8.77;100.00;98549.91;4999904;28;21839;-76
2023/10/05 07:00:20;;;;;;;;;;;9.40;99.90;;;8.73;100.00;98549.09;5001190;28;19989;-75
2023/10/05 07:02:48;;;;;;;;;;;9.40;99.90;;;8.68;100.00;98563.88;4981381;28;20056;-76
2023/10/05 07:05:17;;;;;;;;;;;9.40;99.90;;;8.81;100.00;98567.09;4998289;28;19940;-75
2023/10/05 07:07:44;;;;;;;;;;;9.50;99.90;;;8.90;100.00;98563.47;5000519;28;19999;-75
2023/10/05 07:10:14;;;;;;;;;;;9.50;99.90;;;9.06;100.00;98571.78;5015758;28;19972;-75
2023/10/05 07:12:46;;;;;;;;;;;9.60;99.90;;;9.08;100.00;98572.59;5013107;28;19934;-75
2023/10/05 07:15:20;;;;;;;;;;;9.70;99.90;;;9.18;100.00;98577.53;4996023;28;19949;-75
2023/10/05 07:17:51;;;;;;;;;;;9.80;99.90;;;9.29;100.00;98576.47;5002885;28;20353;-76
2023/10/05 07:20:18;;;;;;;;;;;9.90;99.90;;;9.27;100.00;98584.28;4989217;28;19930;-75
2023/10/05 07:22:48;;;;;;;;;;;9.90;99.90;;;9.35;100.00;98584.97;5016456;28;19947;-75
2023/10/05 07:25:17;;;;;;;;;;;10.10;99.90;;;9.54;100.00;98595.78;5002195;28;19980;-75
2023/10/05 07:27:45;;;;;;;;;;;10.10;99.90;;;9.66;100.00;98593.81;5016494;28;19929;-76
2023/10/05 07:30:13;;;;;;;;;;;10.20;99.90;;;9.68;100.00;98589.44;5004215;28;19933;-75
2023/10/05 07:32:40;;;;;;;;;;;10.30;99.90;;;9.68;100.00;98590.28;5004151;28;19979;-75
2023/10/05 07:35:09;;;;;;;;;;;10.40;99.90;;;10.15;100.00;98596.09;5002765;28;20294;-75
2023/10/05 07:37:37;;;;;;;;;;;10.60;99.90;;;10.23;100.00;98598.50;5003877;28;19933;-75
2023/10/05 07:40:07;;;;;;;;;;;10.70;99.90;;;10.56;100.00;98593.34;5005644;28;20432;-75
2023/10/05 07:42:35;;;;;;;;;;;11.00;99.90;;;10.43;100.00;98598.03;5006696;28;19930;-75
2023/10/05 07:45:04;;;;;;;;;;;11.20;99.90;;;10.62;100.00;98590.59;5007747;28;19936;-75
2023/10/05 07:47:31;;;;;;;;;;;11.60;99.90;;;10.76;100.00;98595.44;5004472;28;20031;-76
2023/10/05 07:49:58;;;;;;;;;;;11.90;99.90;;;11.21;100.00;98605.44;5002765;28;20567;-76
2023/10/05 07:52:30;;;;;;;;;;;12.00;99.90;;;10.87;100.00;98604.63;5003838;28;19929;-76
2023/10/05 07:54:57;;;;;;;;;;;12.20;99.90;;;11.29;100.00;98609.53;5003840;28;19933;-76
2023/10/05 07:57:24;;;;;;;;;;;12.00;99.90;;;11.07;100.00;98605.84;5000148;28;19934;-75
2023/10/05 07:59:51;;;;;;;;;;;11.90;99.90;;;11.20;100.00;98616.72;4991370;28;19937;-75
2023/10/05 08:02:18;;;;;;;;;;;11.60;99.90;;;11.13;100.00;98607.41;5005237;28;19979;-78
2023/10/05 08:04:46;;;;;;;;;;;11.40;99.90;;;11.20;100.00;98612.38;5007587;28;19933;-75
2023/10/05 08:07:15;;;;;;;;;;;11.30;99.90;;;11.18;100.00;98614.19;5003715;28;19996;-75
2023/10/05 08:09:42;;;;;;;;;;;11.40;99.90;;;11.36;100.00;98614.53;4989685;28;19934;-75
2023/10/05 08:12:12;;;;;;;;;;;11.60;99.90;;;11.41;100.00;98613.50;5002305;28;20398;-75
2023/10/05 08:14:40;;;;;;;;;;;11.90;99.90;;;11.32;100.00;98626.78;5006513;28;20004;-75
2023/10/05 08:17:06;;;;;;;;;;;12.10;99.90;;;11.56;100.00;98614.78;5002405;28;20657;-76
2023/10/05 08:19:33;;;;;;;;;;;12.30;99.90;;;11.93;100.00;98619.75;5000608;28;20003;-76
2023/10/05 08:22:00;;;;;;;;;;;12.40;99.90;;;12.40;100.00;98621.72;5006627;28;19929;-76
2023/10/05 08:24:28;;;;;;;;;;;12.60;99.90;;;12.03;100.00;98624.69;5000761;28;19956;-73
2023/10/05 08:27:00;;;;;;;;;;;12.80;99.90;;;12.21;100.00;98618.03;4986344;28;19930;-75
2023/10/05 08:29:28;;;;;;;;;;;12.80;99.90;;;12.18;100.00;98620.72;5001445;28;19933;-75
2023/10/05 08:31:55;;;;;;;;;;;13.20;99.90;;;12.64;100.00;98637.44;5005282;28;20361;-78
2023/10/05 08:34:22;;;;;;;;;;;13.50;99.90;;;12.81;100.00;98627.28;4987921;28;19929;-77
2023/10/05 08:36:53;;;;;;;;;;;14.20;99.90;;;13.29;100.00;98634.28;5005013;28;19936;-77
2023/10/05 08:39:25;;;;;;;;;;;14.90;99.90;;;14.19;100.00;98619.50;5002752;28;20030;-76
2023/10/05 08:42:05;;;;;;;;;;;15.70;99.90;;;14.40;100.00;98619.53;5001603;28;19936;-75
2023/10/05 08:44:41;;;;;;;;;;;16.30;99.90;;;14.97;100.00;98632.84;5005492;28;20228;-77
2023/10/05 08:47:13;;;;;;;;;;;16.20;99.90;;;14.67;100.00;98632.41;5013327;28;20445;-78
2023/10/05 08:49:43;;;;;;;;;;;16.10;99.90;;;14.52;100.00;98634.69;5004609;28;19957;-77
2023/10/05 08:52:20;;;;;;;;;;;16.00;99.90;;;14.85;100.00;98634.22;4999851;28;19932;-76
2023/10/05 08:54:47;;;;;;;;;;;16.20;99.90;;;15.19;100.00;98637.97;5001623;28;20420;-77
2023/10/05 08:57:16;;;;;;;;;;;16.50;99.90;;;14.46;100.00;98662.84;5016982;28;20056;-76
2023/10/05 08:59:47;;;;;;;;;;;16.40;99.90;;;14.88;100.00;98665.47;5001508;28;19936;-77
2023/10/05 09:02:21;;;;;;;;;;;16.60;99.90;;;14.49;100.00;98658.34;5004310;28;19929;-76
2023/10/05 09:04:58;;;;;;;;;;;16.50;99.90;;;14.55;100.00;98668.59;5002877;28;19929;-77
2023/10/05 09:07:37;;;;;;;;;;;16.20;99.90;;;15.03;100.00;98662.19;4988577;28;20007;-77
2023/10/05 09:10:08;;;;;;;;;;;16.10;99.90;;;14.76;100.00;98666.00;5001605;28;20020;-78
2023/10/05 09:12:37;;;;;;;;;;;16.60;99.90;;;15.33;100.00;98663.53;5004505;28;20121;-75
2023/10/05 09:15:12;;;;;;;;;;;17.10;99.90;;;15.59;100.00;98662.34;5003147;28;19930;-76
2023/10/05 09:17:58;;;;;;;;;;;17.40;99.90;;;15.52;100.00;98667.00;5006236;28;19933;-76
2023/10/05 09:20:31;;;;;;;;;;;17.10;99.90;;;15.30;100.00;98659.25;5007313;28;19929;-76
2023/10/05 09:23:04;;;;;;;;;;;17.00;99.90;;;15.49;100.00;98669.78;5004341;28;20309;-75
2023/10/05 09:25:39;;;;;;;;;;;16.40;99.90;;;15.14;100.00;98676.56;5006264;28;20104;-77
2023/10/05 09:28:16;;;;;;;;;;;16.20;99.90;;;14.54;100.00;98677.31;5001959;28;21041;-76
2023/10/05 09:30:55;;;;;;;;;;;15.90;99.90;;;14.36;100.00;98676.25;5004656;28;19940;-77
2023/10/05 09:33:27;;;;;;;;;;;15.50;99.90;;;14.18;100.00;98677.84;5013211;28;19937;-75
2023/10/05 09:36:01;;;;;;;;;;;15.30;99.90;;;14.50;100.00;98675.69;5012824;28;19973;-75
2023/10/05 09:38:29;;;;;;;;;;;15.20;99.90;;;14.40;100.00;98680.47;5018951;28;19936;-75
2023/10/05 09:40:58;;;;;;;;;;;15.30;99.90;;;14.38;100.00;98684.06;5002260;28;19929;-74
2023/10/05 09:43:27;;;;;;;;;;;15.10;99.90;;;14.64;100.00;98672.56;5004845;28;19980;-75
2023/10/05 09:45:56;;;;;;;;;;;15.20;99.90;;;14.63;100.00;98678.72;5000144;28;20020;-75
2023/10/05 09:48:24;;;;;;;;;;;15.40;99.90;;;14.66;100.00;98673.34;5002371;28;19934;-75
2023/10/05 09:50:52;;;;;;;;;;;15.60;99.90;;;15.03;100.00;98677.88;4999625;28;19930;-76
2023/10/05 09:53:20;;;;;;;;;;;15.80;99.90;;;14.87;100.00;98676.84;5015462;28;20402;-74
2023/10/05 09:55:53;;;;;;;;;;;15.80;99.90;;;15.14;100.00;98681.78;5003005;28;19964;-75
2023/10/05 09:58:21;;;;;;;;;;;15.70;99.90;;;15.23;100.00;98673.53;5002301;28;19930;-76
2023/10/05 10:00:48;;;;;;;;;;;15.90;99.90;;;15.24;100.00;98677.84;5003068;28;20008;-76
2023/10/05 10:03:17;;;;;;;;;;;16.00;99.90;;;15.46;100.00;98691.69;5003320;28;20019;-77
2023/10/05 10:05:51;;;;;;;;;;;16.10;99.90;;;15.76;100.00;98696.50;4999676;28;20457;-75
2023/10/05 10:08:29;;;;;;;;;;;16.20;99.90;;;15.73;100.00;98701.84;5016806;28;20016;-76
2023/10/05 10:11:06;;;;;;;;;;;16.20;99.90;;;15.88;100.00;98701.16;5018532;28;19933;-76
2023/10/05 10:13:37;;;;;;;;;;;16.00;99.90;;;15.94;100.00;98712.25;4999024;28;19932;-76
2023/10/05 10:16:26;;;;;;;;;;;16.10;99.90;;;16.27;100.00;98715.91;4998085;28;19973;-75
2023/10/05 10:19:18;;;;;;;;;;;16.10;99.90;;;16.24;100.00;98696.88;5002474;28;19933;-75
2023/10/05 10:22:00;;;;;;;;;;;16.20;99.90;;;15.80;100.00;98698.03;5005911;28;20448;-76
2023/10/05 10:24:29;;;;;;;;;;;16.10;99.90;;;15.66;100.00;98701.25;4998509;28;21081;-76
2023/10/05 10:27:07;;;;;;;;;;;16.00;99.90;;;15.82;100.00;98714.50;4998791;28;20405;-77
2023/10/05 10:29:59;;;;;;;;;;;16.00;99.90;;;15.73;100.00;98727.19;5003636;28;20050;-76
2023/10/05 10:32:34;;;;;;;;;;;16.00;99.90;;;15.45;100.00;98738.84;5001416;28;19939;-75
2023/10/05 10:35:26;;;;;;;;;;;15.90;99.90;;;15.70;100.00;98720.28;5002102;28;19929;-76
2023/10/05 10:37:59;;;;;;;;;;;16.20;99.90;;;16.49;100.00;98713.13;4999911;28;19930;-75
2023/10/05 10:40:27;;;;;;;;;;;16.60;99.90;;;15.92;100.00;98704.50;5003132;28;19933;-76
2023/10/05 10:45:41;;;;;;;;;;;16.00;99.90;;;15.30;100.00;98713.34;5002832;28;19926;-77
2023/10/05 10:48:13;;;;;;;;;;;15.60;99.90;;;15.32;100.00;98706.28;4997919;28;19930;-77
2023/10/05 10:50:40;;;;;;;;;;;15.60;99.90;;;15.23;100.00;98711.00;5002860;28;19933;-77
2023/10/05 10:53:17;;;;;;;;;;;15.60;99.90;;;15.09;100.00;98705.50;5002882;28;20321;-76
2023/10/05 10:56:20;;;;;;;;;;;15.70;99.90;;;15.10;100.00;98696.78;5002576;28;20301;-77
2023/10/05 10:58:56;;;;;;;;;;;15.60;99.90;;;15.05;100.00;98699.59;5000104;28;20616;-76
2023/10/05 11:01:40;;;;;;;;;;;15.40;99.90;;;15.05;100.00;98694.34;5000648;28;19955;-76
2023/10/05 11:04:32;;;;;;;;;;;15.30;99.90;;;15.25;100.00;98693.47;5006275;28;20003;-76
2023/10/05 11:07:05;;;;;;;;;;;15.20;99.90;;;15.01;100.00;98697.16;4999858;28;20291;-76
2023/10/05 11:09:37;;;;;;;;;;;15.30;99.90;;;15.25;100.00;98690.84;5003573;28;19930;-76
2023/10/05 11:12:10;;;;;;;;;;;15.40;99.90;;;15.69;100.00;98685.41;4981249;28;19940;-76
2023/10/05 11:14:44;;;;;;;;;;;15.60;99.90;;;15.63;100.00;98683.06;5000509;28;19929;-76
2023/10/05 11:17:36;;;;;;;;;;;15.70;99.90;;;15.64;100.00;98682.13;5000943;28;19948;-77
2023/10/05 11:20:17;;;;;;;;;;;15.70;99.90;;;15.71;100.00;98689.75;5014129;28;20506;-75
2023/10/05 11:22:44;;;;;;;;;;;15.90;99.90;;;15.38;100.00;98683.31;5004878;28;20561;-77
2023/10/05 11:25:16;;;;;;;;;;;15.90;99.90;;;15.79;100.00;98670.16;5005147;28;19937;-76
2023/10/05 11:27:47;;;;;;;;;;;16.10;99.90;;;15.91;100.00;98663.50;4999983;28;19933;-76
2023/10/05 11:30:21;;;;;;;;;;;16.10;99.90;;;16.43;100.00;98649.69;5017351;28;19985;-76
2023/10/05 11:32:56;;;;;;;;;;;16.50;99.90;;;16.05;100.00;98644.50;4999016;28;19929;-76
2023/10/05 11:35:55;;;;;;;;;;;16.50;99.90;;;16.16;100.00;98639.59;5013435;28;19933;-76
2023/10/05 11:38:26;;;;;;;;;;;16.40;99.90;;;15.75;100.00;98649.44;5000385;28;20421;-76
2023/10/05 11:40:55;;;;;;;;;;;16.20;99.90;;;15.97;100.00;98644.03;4988526;28;19940;-76
2023/10/05 11:43:23;;;;;;;;;;;16.30;99.90;;;15.91;100.00;98658.25;5017515;28;20334;-75
2023/10/05 11:45:56;;;;;;;;;;;16.40;99.90;;;15.71;100.00;98663.56;4999339;28;20399;-76
2023/10/05 11:48:42;;;;;;;;;;;16.40;99.90;;;15.80;100.00;98658.75;4998457;28;19936;-74
2023/10/05 11:51:11;;;;;;;;;;;16.50;99.90;;;15.42;100.00;98663.13;5000466;28;19951;-76
2023/10/05 11:53:39;;;;;;;;;;;16.20;99.90;;;15.15;100.00;98668.66;5012658;28;19934;-75
2023/10/05 11:56:06;;;;;;;;;;;15.90;99.90;;;15.02;100.00;98662.25;5000659;28;20407;-75
2023/10/05 11:58:37;;;;;;;;;;;15.70;99.90;;;15.14;100.00;98632.09;5001417;28;19933;-76